Steward, Illinois
Current Conditions -  °F | °C
As of 10:35 PM on Friday 19 Dec 2014 (Local Time) from KRPJ Reporting Station
Haze Haze  
Wind Chill: 23°   Ceiling: Unl
Heat Index: 23°   Visibility: 5mi
Dew Point: 22°   Wind: 0mph
Humidity: 95%   Direction: NA
Pressure: 30.27"   Gusts: NA
Location:  41.85°N, 89.02°W
Report Text: KRPJ 200435Z AUTO 00000KT 5SM BR SCT031 M05/M06 A3027 RMK AO2 T10511058
Loading
Personal Weather Stations






























Interactive Weather Map New forecast layout! Learn more

10-Day Weather Forecast

Advertisements
Track Severe Weather on mobile